sensor_id;sensor_type;location;lat;lon;timestamp;P1;durP1;ratioP1;P2;durP2;ratioP2
30289;SDS011;17105;55.652;37.710;2022-09-09T00:00:35;3.40;;;1.10;;
30289;SDS011;17105;55.652;37.710;2022-09-09T00:01:13;4.15;;;1.33;;
30289;SDS011;17105;55.652;37.710;2022-09-09T00:01:51;3.40;;;1.33;;
30289;SDS011;17105;55.652;37.710;2022-09-09T00:02:28;4.60;;;1.50;;
30289;SDS011;17105;55.652;37.710;2022-09-09T00:03:04;3.38;;;1.35;;
30289;SDS011;17105;55.652;37.710;2022-09-09T00:03:44;7.60;;;1.48;;
30289;SDS011;17105;55.652;37.710;2022-09-09T00:04:24;4.32;;;1.42;;
30289;SDS011;17105;55.652;37.710;2022-09-09T00:05:04;3.92;;;1.45;;
30289;SDS011;17105;55.652;37.710;2022-09-09T00:05:49;4.43;;;1.33;;
30289;SDS011;17105;55.652;37.710;2022-09-09T00:06:30;3.58;;;1.52;;
30289;SDS011;17105;55.652;37.710;2022-09-09T00:07:05;7.88;;;1.50;;
30289;SDS011;17105;55.652;37.710;2022-09-09T00:07:41;3.53;;;1.40;;
30289;SDS011;17105;55.652;37.710;2022-09-09T00:08:18;5.45;;;1.58;;
30289;SDS011;17105;55.652;37.710;2022-09-09T00:08:57;5.55;;;1.60;;
30289;SDS011;17105;55.652;37.710;2022-09-09T00:09:35;4.15;;;1.60;;
30289;SDS011;17105;55.652;37.710;2022-09-09T00:10:14;4.53;;;1.67;;
30289;SDS011;17105;55.652;37.710;2022-09-09T00:10:48;5.50;;;1.40;;
30289;SDS011;17105;55.652;37.710;2022-09-09T00:11:28;7.20;;;1.88;;
30289;SDS011;17105;55.652;37.710;2022-09-09T00:12:04;4.40;;;1.52;;
30289;SDS011;17105;55.652;37.710;2022-09-09T00:12:41;4.55;;;1.60;;
30289;SDS011;17105;55.652;37.710;2022-09-09T00:13:21;3.75;;;1.42;;
30289;SDS011;17105;55.652;37.710;2022-09-09T00:13:55;5.97;;;1.33;;
30289;SDS011;17105;55.652;37.710;2022-09-09T00:14:33;6.72;;;1.35;;
30289;SDS011;17105;55.652;37.710;2022-09-09T00:15:11;4.45;;;1.70;;
30289;SDS011;17105;55.652;37.710;2022-09-09T00:15:47;5.65;;;1.70;;
30289;SDS011;17105;55.652;37.710;2022-09-09T00:16:24;6.15;;;1.60;;
30289;SDS011;17105;55.652;37.710;2022-09-09T00:17:02;4.20;;;1.60;;
30289;SDS011;17105;55.652;37.710;2022-09-09T00:17:38;2.92;;;1.38;;
30289;SDS011;17105;55.652;37.710;2022-09-09T00:18:15;3.83;;;1.70;;
30289;SDS011;17105;55.652;37.710;2022-09-09T00:18:53;5.30;;;1.50;;
30289;SDS011;17105;55.652;37.710;2022-09-09T00:19:32;3.58;;;1.55;;
30289;SDS011;17105;55.652;37.710;2022-09-09T00:20:10;4.95;;;1.58;;
30289;SDS011;17105;55.652;37.710;2022-09-09T00:20:48;8.27;;;1.60;;
30289;SDS011;17105;55.652;37.710;2022-09-09T00:21:23;5.22;;;1.77;;
30289;SDS011;17105;55.652;37.710;2022-09-09T00:22:03;6.03;;;1.70;;
30289;SDS011;17105;55.652;37.710;2022-09-09T00:22:45;8.70;;;1.60;;
30289;SDS011;17105;55.652;37.710;2022-09-09T00:23:23;3.85;;;1.55;;
30289;SDS011;17105;55.652;37.710;2022-09-09T00:23:57;3.85;;;1.40;;
30289;SDS011;17105;55.652;37.710;2022-09-09T00:24:33;5.57;;;1.50;;
30289;SDS011;17105;55.652;37.710;2022-09-09T00:25:14;9.70;;;1.58;;
30289;SDS011;17105;55.652;37.710;2022-09-09T00:25:51;7.25;;;1.85;;
30289;SDS011;17105;55.652;37.710;2022-09-09T00:26:29;4.85;;;1.63;;
30289;SDS011;17105;55.652;37.710;2022-09-09T00:27:06;4.68;;;1.90;;
30289;SDS011;17105;55.652;37.710;2022-09-09T00:27:41;7.32;;;1.70;;
30289;SDS011;17105;55.652;37.710;2022-09-09T00:28:18;4.88;;;1.88;;
30289;SDS011;17105;55.652;37.710;2022-09-09T00:28:52;4.25;;;1.67;;
30289;SDS011;17105;55.652;37.710;2022-09-09T00:29:28;6.20;;;1.70;;
30289;SDS011;17105;55.652;37.710;2022-09-09T00:30:13;5.53;;;1.90;;
30289;SDS011;17105;55.652;37.710;2022-09-09T00:30:48;5.18;;;1.80;;
30289;SDS011;17105;55.652;37.710;2022-09-09T00:31:25;4.57;;;1.73;;
30289;SDS011;17105;55.652;37.710;2022-09-09T00:32:09;4.60;;;1.70;;
30289;SDS011;17105;55.652;37.710;2022-09-09T00:32:44;3.80;;;1.83;;
30289;SDS011;17105;55.652;37.710;2022-09-09T00:33:19;4.05;;;1.73;;
30289;SDS011;17105;55.652;37.710;2022-09-09T00:33:56;4.05;;;1.70;;
30289;SDS011;17105;55.652;37.710;2022-09-09T00:34:32;6.18;;;1.63;;
30289;SDS011;17105;55.652;37.710;2022-09-09T00:35:12;6.55;;;1.77;;
30289;SDS011;17105;55.652;37.710;2022-09-09T00:35:51;4.47;;;1.50;;
30289;SDS011;17105;55.652;37.710;2022-09-09T00:36:25;6.18;;;1.85;;
30289;SDS011;17105;55.652;37.710;2022-09-09T00:37:00;5.70;;;1.83;;
30289;SDS011;17105;55.652;37.710;2022-09-09T00:37:37;3.40;;;1.60;;
30289;SDS011;17105;55.652;37.710;2022-09-09T00:38:14;5.47;;;1.67;;
30289;SDS011;17105;55.652;37.710;2022-09-09T00:38:53;8.50;;;1.60;;
30289;SDS011;17105;55.652;37.710;2022-09-09T00:39:31;3.50;;;1.50;;
30289;SDS011;17105;55.652;37.710;2022-09-09T00:40:16;5.13;;;1.60;;
30289;SDS011;17105;55.652;37.710;2022-09-09T00:40:52;6.65;;;1.80;;
30289;SDS011;17105;55.652;37.710;2022-09-09T00:41:31;3.55;;;1.40;;
30289;SDS011;17105;55.652;37.710;2022-09-09T00:42:13;4.57;;;1.55;;
30289;SDS011;17105;55.652;37.710;2022-09-09T00:42:47;5.45;;;2.00;;
30289;SDS011;17105;55.652;37.710;2022-09-09T00:43:28;6.30;;;1.70;;
30289;SDS011;17105;55.652;37.710;2022-09-09T00:44:03;3.03;;;1.48;;
30289;SDS011;17105;55.652;37.710;2022-09-09T00:44:51;4.15;;;1.70;;
30289;SDS011;17105;55.652;37.710;2022-09-09T00:47:34;4.28;;;1.70;;
30289;SDS011;17105;55.652;37.710;2022-09-09T00:48:12;5.07;;;1.90;;
30289;SDS011;17105;55.652;37.710;2022-09-09T00:48:48;3.80;;;1.45;;
30289;SDS011;17105;55.652;37.710;2022-09-09T00:49:29;6.83;;;2.03;;
30289;SDS011;17105;55.652;37.710;2022-09-09T00:50:42;3.95;;;1.70;;
30289;SDS011;17105;55.652;37.710;2022-09-09T00:51:22;4.38;;;1.60;;
30289;SDS011;17105;55.652;37.710;2022-09-09T00:51:59;4.30;;;1.80;;
30289;SDS011;17105;55.652;37.710;2022-09-09T00:52:37;5.70;;;1.77;;
30289;SDS011;17105;55.652;37.710;2022-09-09T00:53:18;5.90;;;1.60;;
30289;SDS011;17105;55.652;37.710;2022-09-09T00:53:58;5.32;;;1.67;;
30289;SDS011;17105;55.652;37.710;2022-09-09T00:54:40;4.40;;;1.27;;
30289;SDS011;17105;55.652;37.710;2022-09-09T00:55:21;6.72;;;1.90;;
30289;SDS011;17105;55.652;37.710;2022-09-09T00:56:01;4.85;;;1.80;;
30289;SDS011;17105;55.652;37.710;2022-09-09T00:56:37;7.78;;;1.55;;
30289;SDS011;17105;55.652;37.710;2022-09-09T00:57:18;3.67;;;1.58;;
30289;SDS011;17105;55.652;37.710;2022-09-09T00:57:52;4.45;;;1.48;;
30289;SDS011;17105;55.652;37.710;2022-09-09T00:58:26;4.57;;;1.70;;
30289;SDS011;17105;55.652;37.710;2022-09-09T00:59:04;4.10;;;1.50;;
30289;SDS011;17105;55.652;37.710;2022-09-09T00:59:45;5.10;;;1.42;;
30289;SDS011;17105;55.652;37.710;2022-09-09T01:00:21;2.92;;;1.30;;
30289;SDS011;17105;55.652;37.710;2022-09-09T01:01:01;6.05;;;1.52;;
30289;SDS011;17105;55.652;37.710;2022-09-09T01:01:39;5.70;;;1.48;;
30289;SDS011;17105;55.652;37.710;2022-09-09T01:02:17;4.78;;;1.35;;
30289;SDS011;17105;55.652;37.710;2022-09-09T01:04:21;3.50;;;1.38;;
30289;SDS011;17105;55.652;37.710;2022-09-09T01:04:59;3.35;;;1.27;;
30289;SDS011;17105;55.652;37.710;2022-09-09T01:05:36;3.47;;;1.42;;
30289;SDS011;17105;55.652;37.710;2022-09-09T01:06:15;5.20;;;1.60;;
30289;SDS011;17105;55.652;37.710;2022-09-09T01:06:52;5.72;;;1.50;;
30289;SDS011;17105;55.652;37.710;2022-09-09T01:07:29;3.10;;;1.30;;
30289;SDS011;17105;55.652;37.710;2022-09-09T01:08:05;2.97;;;1.25;;
30289;SDS011;17105;55.652;37.710;2022-09-09T01:08:56;5.82;;;1.55;;
30289;SDS011;17105;55.652;37.710;2022-09-09T01:09:35;7.57;;;1.73;;
30289;SDS011;17105;55.652;37.710;2022-09-09T01:10:23;2.80;;;1.17;;
30289;SDS011;17105;55.652;37.710;2022-09-09T01:11:00;3.08;;;1.20;;
30289;SDS011;17105;55.652;37.710;2022-09-09T01:11:37;3.30;;;1.40;;
30289;SDS011;17105;55.652;37.710;2022-09-09T01:12:23;9.63;;;1.90;;
30289;SDS011;17105;55.652;37.710;2022-09-09T01:12:59;3.78;;;1.35;;
30289;SDS011;17105;55.652;37.710;2022-09-09T01:13:37;5.35;;;1.50;;
30289;SDS011;17105;55.652;37.710;2022-09-09T01:14:14;6.82;;;1.45;;
30289;SDS011;17105;55.652;37.710;2022-09-09T01:14:50;6.80;;;1.42;;
30289;SDS011;17105;55.652;37.710;2022-09-09T01:15:27;6.30;;;1.50;;
30289;SDS011;17105;55.652;37.710;2022-09-09T01:16:01;6.63;;;1.60;;
30289;SDS011;17105;55.652;37.710;2022-09-09T01:16:39;5.55;;;1.35;;
30289;SDS011;17105;55.652;37.710;2022-09-09T01:17:17;5.57;;;1.92;;
30289;SDS011;17105;55.652;37.710;2022-09-09T01:18:02;3.78;;;1.40;;
30289;SDS011;17105;55.652;37.710;2022-09-09T01:18:44;4.25;;;1.52;;
30289;SDS011;17105;55.652;37.710;2022-09-09T01:19:20;6.20;;;1.80;;
30289;SDS011;17105;55.652;37.710;2022-09-09T01:20:02;6.93;;;1.70;;
30289;SDS011;17105;55.652;37.710;2022-09-09T01:20:46;3.88;;;1.67;;
30289;SDS011;17105;55.652;37.710;2022-09-09T01:21:24;3.35;;;1.50;;
30289;SDS011;17105;55.652;37.710;2022-09-09T01:22:01;4.15;;;1.45;;
30289;SDS011;17105;55.652;37.710;2022-09-09T01:22:42;5.55;;;1.65;;
30289;SDS011;17105;55.652;37.710;2022-09-09T01:23:22;6.85;;;1.95;;
30289;SDS011;17105;55.652;37.710;2022-09-09T01:24:17;6.40;;;1.80;;
30289;SDS011;17105;55.652;37.710;2022-09-09T01:25:19;3.72;;;1.50;;
30289;SDS011;17105;55.652;37.710;2022-09-09T01:26:21;4.78;;;1.70;;
30289;SDS011;17105;55.652;37.710;2022-09-09T01:26:59;3.97;;;1.50;;
30289;SDS011;17105;55.652;37.710;2022-09-09T01:27:36;5.70;;;1.65;;
30289;SDS011;17105;55.652;37.710;2022-09-09T01:28:10;4.53;;;1.85;;
30289;SDS011;17105;55.652;37.710;2022-09-09T01:28:50;4.97;;;1.58;;
30289;SDS011;17105;55.652;37.710;2022-09-09T01:29:34;7.15;;;1.98;;
30289;SDS011;17105;55.652;37.710;2022-09-09T01:30:14;4.73;;;1.60;;
30289;SDS011;17105;55.652;37.710;2022-09-09T01:30:51;4.60;;;1.70;;
30289;SDS011;17105;55.652;37.710;2022-09-09T01:31:28;5.05;;;1.75;;
30289;SDS011;17105;55.652;37.710;2022-09-09T01:32:54;7.13;;;1.80;;
30289;SDS011;17105;55.652;37.710;2022-09-09T01:33:32;3.75;;;1.80;;
30289;SDS011;17105;55.652;37.710;2022-09-09T01:34:08;3.58;;;1.48;;
30289;SDS011;17105;55.652;37.710;2022-09-09T01:34:43;9.10;;;2.10;;
30289;SDS011;17105;55.652;37.710;2022-09-09T01:35:26;4.55;;;1.77;;
30289;SDS011;17105;55.652;37.710;2022-09-09T01:36:05;4.68;;;1.92;;
30289;SDS011;17105;55.652;37.710;2022-09-09T01:36:52;5.05;;;2.00;;
30289;SDS011;17105;55.652;37.710;2022-09-09T01:37:27;6.13;;;2.25;;
30289;SDS011;17105;55.652;37.710;2022-09-09T01:38:01;5.55;;;1.95;;
30289;SDS011;17105;55.652;37.710;2022-09-09T01:38:36;5.40;;;2.08;;
30289;SDS011;17105;55.652;37.710;2022-09-09T01:39:10;9.77;;;2.03;;
30289;SDS011;17105;55.652;37.710;2022-09-09T01:39:48;5.57;;;2.08;;
30289;SDS011;17105;55.652;37.710;2022-09-09T01:40:23;4.57;;;2.00;;
30289;SDS011;17105;55.652;37.710;2022-09-09T01:40:58;6.72;;;1.92;;
30289;SDS011;17105;55.652;37.710;2022-09-09T01:41:44;6.47;;;1.70;;
30289;SDS011;17105;55.652;37.710;2022-09-09T01:42:22;5.55;;;2.05;;
30289;SDS011;17105;55.652;37.710;2022-09-09T01:42:55;4.20;;;1.77;;
30289;SDS011;17105;55.652;37.710;2022-09-09T01:43:30;6.40;;;2.25;;
30289;SDS011;17105;55.652;37.710;2022-09-09T01:44:04;7.07;;;2.00;;
30289;SDS011;17105;55.652;37.710;2022-09-09T01:44:39;6.05;;;2.55;;
30289;SDS011;17105;55.652;37.710;2022-09-09T01:45:16;5.22;;;1.80;;
30289;SDS011;17105;55.652;37.710;2022-09-09T01:45:51;6.40;;;1.83;;
30289;SDS011;17105;55.652;37.710;2022-09-09T01:46:26;5.82;;;1.90;;
30289;SDS011;17105;55.652;37.710;2022-09-09T01:47:03;5.95;;;2.20;;
30289;SDS011;17105;55.652;37.710;2022-09-09T01:47:38;3.60;;;1.70;;
30289;SDS011;17105;55.652;37.710;2022-09-09T01:48:51;5.40;;;2.08;;
30289;SDS011;17105;55.652;37.710;2022-09-09T01:49:27;5.75;;;2.17;;
30289;SDS011;17105;55.652;37.710;2022-09-09T01:50:01;4.68;;;2.05;;
30289;SDS011;17105;55.652;37.710;2022-09-09T01:50:35;4.15;;;1.90;;
30289;SDS011;17105;55.652;37.710;2022-09-09T01:51:10;7.70;;;2.20;;
30289;SDS011;17105;55.652;37.710;2022-09-09T01:51:45;6.43;;;1.80;;
30289;SDS011;17105;55.652;37.710;2022-09-09T01:52:20;4.35;;;1.92;;
30289;SDS011;17105;55.652;37.710;2022-09-09T01:52:56;7.10;;;2.08;;
30289;SDS011;17105;55.652;37.710;2022-09-09T01:53:34;4.78;;;2.13;;
30289;SDS011;17105;55.652;37.710;2022-09-09T01:54:07;10.32;;;2.38;;
30289;SDS011;17105;55.652;37.710;2022-09-09T01:54:42;6.38;;;2.00;;
30289;SDS011;17105;55.652;37.710;2022-09-09T01:55:22;4.50;;;1.70;;
30289;SDS011;17105;55.652;37.710;2022-09-09T01:56:02;5.63;;;1.98;;
30289;SDS011;17105;55.652;37.710;2022-09-09T01:56:47;4.93;;;2.45;;
30289;SDS011;17105;55.652;37.710;2022-09-09T01:57:24;6.90;;;1.95;;
30289;SDS011;17105;55.652;37.710;2022-09-09T01:58:05;7.82;;;1.90;;
30289;SDS011;17105;55.652;37.710;2022-09-09T01:58:57;4.60;;;2.10;;
30289;SDS011;17105;55.652;37.710;2022-09-09T01:59:58;5.03;;;2.05;;
30289;SDS011;17105;55.652;37.710;2022-09-09T02:00:47;6.22;;;1.90;;
30289;SDS011;17105;55.652;37.710;2022-09-09T02:01:27;6.03;;;2.10;;
30289;SDS011;17105;55.652;37.710;2022-09-09T02:02:08;5.15;;;2.10;;
30289;SDS011;17105;55.652;37.710;2022-09-09T02:02:52;5.88;;;2.00;;
30289;SDS011;17105;55.652;37.710;2022-09-09T02:03:38;5.28;;;2.00;;
30289;SDS011;17105;55.652;37.710;2022-09-09T02:04:24;6.93;;;1.90;;
30289;SDS011;17105;55.652;37.710;2022-09-09T02:05:05;5.32;;;1.98;;
30289;SDS011;17105;55.652;37.710;2022-09-09T02:05:41;5.00;;;1.77;;
30289;SDS011;17105;55.652;37.710;2022-09-09T02:06:26;5.32;;;2.08;;
30289;SDS011;17105;55.652;37.710;2022-09-09T02:07:19;4.70;;;2.03;;
30289;SDS011;17105;55.652;37.710;2022-09-09T02:08:20;5.97;;;1.80;;
30289;SDS011;17105;55.652;37.710;2022-09-09T02:09:04;6.78;;;1.80;;
30289;SDS011;17105;55.652;37.710;2022-09-09T02:09:38;4.68;;;1.73;;
30289;SDS011;17105;55.652;37.710;2022-09-09T02:10:16;4.45;;;1.98;;
30289;SDS011;17105;55.652;37.710;2022-09-09T02:11:04;5.40;;;2.38;;
30289;SDS011;17105;55.652;37.710;2022-09-09T02:12:01;4.82;;;2.25;;
30289;SDS011;17105;55.652;37.710;2022-09-09T02:12:47;4.70;;;2.10;;
30289;SDS011;17105;55.652;37.710;2022-09-09T02:13:22;5.97;;;2.72;;
30289;SDS011;17105;55.652;37.710;2022-09-09T02:14:00;6.97;;;2.10;;
30289;SDS011;17105;55.652;37.710;2022-09-09T02:14:34;4.38;;;1.83;;
30289;SDS011;17105;55.652;37.710;2022-09-09T02:15:11;6.40;;;1.73;;
30289;SDS011;17105;55.652;37.710;2022-09-09T02:15:53;6.88;;;2.08;;
30289;SDS011;17105;55.652;37.710;2022-09-09T02:16:30;4.05;;;1.75;;
30289;SDS011;17105;55.652;37.710;2022-09-09T02:17:07;5.85;;;2.17;;
30289;SDS011;17105;55.652;37.710;2022-09-09T02:18:00;7.95;;;2.00;;
30289;SDS011;17105;55.652;37.710;2022-09-09T02:18:35;5.80;;;2.17;;
30289;SDS011;17105;55.652;37.710;2022-09-09T02:19:12;5.60;;;2.25;;
30289;SDS011;17105;55.652;37.710;2022-09-09T02:20:11;5.20;;;2.00;;
30289;SDS011;17105;55.652;37.710;2022-09-09T02:20:53;5.55;;;2.05;;
30289;SDS011;17105;55.652;37.710;2022-09-09T02:21:27;4.72;;;2.05;;
30289;SDS011;17105;55.652;37.710;2022-09-09T02:22:02;11.95;;;1.90;;
30289;SDS011;17105;55.652;37.710;2022-09-09T02:22:38;5.30;;;2.03;;
30289;SDS011;17105;55.652;37.710;2022-09-09T02:23:12;9.73;;;2.30;;
30289;SDS011;17105;55.652;37.710;2022-09-09T02:23:51;6.60;;;2.03;;
30289;SDS011;17105;55.652;37.710;2022-09-09T02:24:28;7.28;;;2.10;;
30289;SDS011;17105;55.652;37.710;2022-09-09T02:25:15;4.55;;;1.70;;
30289;SDS011;17105;55.652;37.710;2022-09-09T02:25:52;5.82;;;1.83;;
30289;SDS011;17105;55.652;37.710;2022-09-09T02:26:29;7.60;;;1.85;;
30289;SDS011;17105;55.652;37.710;2022-09-09T02:27:10;7.13;;;2.10;;
30289;SDS011;17105;55.652;37.710;2022-09-09T02:27:46;4.78;;;2.10;;
30289;SDS011;17105;55.652;37.710;2022-09-09T02:28:20;6.03;;;2.38;;
30289;SDS011;17105;55.652;37.710;2022-09-09T02:28:57;5.53;;;2.20;;
30289;SDS011;17105;55.652;37.710;2022-09-09T02:29:34;4.70;;;2.10;;
30289;SDS011;17105;55.652;37.710;2022-09-09T02:30:09;5.88;;;2.30;;
30289;SDS011;17105;55.652;37.710;2022-09-09T02:30:51;4.72;;;2.15;;
30289;SDS011;17105;55.652;37.710;2022-09-09T02:31:35;6.18;;;2.40;;
30289;SDS011;17105;55.652;37.710;2022-09-09T02:32:19;8.55;;;2.30;;
30289;SDS011;17105;55.652;37.710;2022-09-09T02:32:54;6.35;;;2.17;;
30289;SDS011;17105;55.652;37.710;2022-09-09T02:33:43;5.80;;;2.47;;
30289;SDS011;17105;55.652;37.710;2022-09-09T02:34:20;7.20;;;2.47;;
30289;SDS011;17105;55.652;37.710;2022-09-09T02:34:57;4.85;;;2.20;;
30289;SDS011;17105;55.652;37.710;2022-09-09T02:35:31;5.63;;;2.55;;
30289;SDS011;17105;55.652;37.710;2022-09-09T02:36:09;5.10;;;2.10;;
30289;SDS011;17105;55.652;37.710;2022-09-09T02:36:46;7.50;;;2.47;;
30289;SDS011;17105;55.652;37.710;2022-09-09T02:37:20;8.30;;;2.22;;
30289;SDS011;17105;55.652;37.710;2022-09-09T02:37:58;6.13;;;2.83;;
30289;SDS011;17105;55.652;37.710;2022-09-09T02:38:35;9.18;;;2.38;;
30289;SDS011;17105;55.652;37.710;2022-09-09T02:39:16;4.60;;;2.20;;
30289;SDS011;17105;55.652;37.710;2022-09-09T02:39:55;6.85;;;3.33;;
30289;SDS011;17105;55.652;37.710;2022-09-09T02:40:29;7.25;;;2.50;;
30289;SDS011;17105;55.652;37.710;2022-09-09T02:41:05;11.77;;;2.80;;
30289;SDS011;17105;55.652;37.710;2022-09-09T02:41:41;7.45;;;2.72;;
30289;SDS011;17105;55.652;37.710;2022-09-09T02:42:17;9.80;;;2.35;;
30289;SDS011;17105;55.652;37.710;2022-09-09T02:42:50;7.35;;;2.80;;
30289;SDS011;17105;55.652;37.710;2022-09-09T02:43:25;7.18;;;2.67;;
30289;SDS011;17105;55.652;37.710;2022-09-09T02:43:59;7.00;;;3.05;;
30289;SDS011;17105;55.652;37.710;2022-09-09T02:44:32;17.63;;;3.05;;
30289;SDS011;17105;55.652;37.710;2022-09-09T02:45:07;6.13;;;2.60;;
30289;SDS011;17105;55.652;37.710;2022-09-09T02:45:41;7.85;;;2.60;;
30289;SDS011;17105;55.652;37.710;2022-09-09T02:46:23;7.78;;;3.20;;
30289;SDS011;17105;55.652;37.710;2022-09-09T02:47:07;8.00;;;2.80;;
30289;SDS011;17105;55.652;37.710;2022-09-09T02:47:47;8.13;;;2.72;;
30289;SDS011;17105;55.652;37.710;2022-09-09T02:48:28;6.53;;;3.13;;
30289;SDS011;17105;55.652;37.710;2022-09-09T02:49:06;6.60;;;2.97;;
30289;SDS011;17105;55.652;37.710;2022-09-09T02:49:47;11.70;;;2.90;;
30289;SDS011;17105;55.652;37.710;2022-09-09T02:51:00;12.23;;;3.40;;
30289;SDS011;17105;55.652;37.710;2022-09-09T02:51:40;8.85;;;3.05;;
30289;SDS011;17105;55.652;37.710;2022-09-09T02:52:16;12.30;;;2.90;;
30289;SDS011;17105;55.652;37.710;2022-09-09T02:53:00;6.07;;;2.50;;
30289;SDS011;17105;55.652;37.710;2022-09-09T02:53:38;7.82;;;2.88;;
30289;SDS011;17105;55.652;37.710;2022-09-09T02:54:16;10.60;;;2.70;;
30289;SDS011;17105;55.652;37.710;2022-09-09T02:54:53;8.93;;;2.35;;
30289;SDS011;17105;55.652;37.710;2022-09-09T02:55:32;6.18;;;2.30;;
30289;SDS011;17105;55.652;37.710;2022-09-09T02:56:13;6.32;;;2.45;;
30289;SDS011;17105;55.652;37.710;2022-09-09T02:56:52;5.85;;;2.35;;
30289;SDS011;17105;55.652;37.710;2022-09-09T02:57:36;10.13;;;2.88;;
30289;SDS011;17105;55.652;37.710;2022-09-09T02:58:12;7.65;;;2.30;;
30289;SDS011;17105;55.652;37.710;2022-09-09T02:58:57;6.43;;;2.60;;
30289;SDS011;17105;55.652;37.710;2022-09-09T02:59:31;8.27;;;2.65;;
30289;SDS011;17105;55.652;37.710;2022-09-09T03:00:08;5.93;;;2.58;;
30289;SDS011;17105;55.652;37.710;2022-09-09T03:00:46;5.55;;;2.42;;
30289;SDS011;17105;55.652;37.710;2022-09-09T03:01:20;6.82;;;2.53;;
30289;SDS011;17105;55.652;37.710;2022-09-09T03:01:55;6.20;;;2.58;;
30289;SDS011;17105;55.652;37.710;2022-09-09T03:02:29;8.48;;;2.72;;
30289;SDS011;17105;55.652;37.710;2022-09-09T03:03:08;6.88;;;2.40;;
30289;SDS011;17105;55.652;37.710;2022-09-09T03:03:44;7.88;;;2.55;;
30289;SDS011;17105;55.652;37.710;2022-09-09T03:04:20;8.02;;;2.60;;
30289;SDS011;17105;55.652;37.710;2022-09-09T03:04:57;6.03;;;2.60;;
30289;SDS011;17105;55.652;37.710;2022-09-09T03:05:34;6.35;;;2.80;;
30289;SDS011;17105;55.652;37.710;2022-09-09T03:06:08;5.93;;;2.50;;
30289;SDS011;17105;55.652;37.710;2022-09-09T03:06:44;13.85;;;5.57;;
30289;SDS011;17105;55.652;37.710;2022-09-09T03:07:23;9.75;;;2.67;;
30289;SDS011;17105;55.652;37.710;2022-09-09T03:07:57;9.75;;;2.90;;
30289;SDS011;17105;55.652;37.710;2022-09-09T03:08:33;7.18;;;2.33;;
30289;SDS011;17105;55.652;37.710;2022-09-09T03:09:09;8.52;;;2.60;;
30289;SDS011;17105;55.652;37.710;2022-09-09T03:09:43;7.18;;;2.53;;
30289;SDS011;17105;55.652;37.710;2022-09-09T03:10:17;8.57;;;2.58;;
30289;SDS011;17105;55.652;37.710;2022-09-09T03:10:52;4.82;;;2.40;;
30289;SDS011;17105;55.652;37.710;2022-09-09T03:11:30;6.45;;;2.70;;
30289;SDS011;17105;55.652;37.710;2022-09-09T03:12:05;7.35;;;2.53;;
30289;SDS011;17105;55.652;37.710;2022-09-09T03:12:41;5.13;;;2.47;;
30289;SDS011;17105;55.652;37.710;2022-09-09T03:13:16;6.78;;;2.40;;
30289;SDS011;17105;55.652;37.710;2022-09-09T03:13:51;6.43;;;2.65;;
30289;SDS011;17105;55.652;37.710;2022-09-09T03:14:25;6.75;;;2.78;;
30289;SDS011;17105;55.652;37.710;2022-09-09T03:14:59;6.57;;;2.45;;
30289;SDS011;17105;55.652;37.710;2022-09-09T03:15:34;9.95;;;2.90;;
30289;SDS011;17105;55.652;37.710;2022-09-09T03:16:10;8.82;;;2.92;;
30289;SDS011;17105;55.652;37.710;2022-09-09T03:16:49;8.93;;;2.30;;
30289;SDS011;17105;55.652;37.710;2022-09-09T03:17:23;6.57;;;2.70;;
30289;SDS011;17105;55.652;37.710;2022-09-09T03:17:59;10.90;;;2.88;;
30289;SDS011;17105;55.652;37.710;2022-09-09T03:18:33;7.07;;;2.45;;
30289;SDS011;17105;55.652;37.710;2022-09-09T03:19:09;10.30;;;3.17;;
30289;SDS011;17105;55.652;37.710;2022-09-09T03:19:43;7.32;;;2.55;;
30289;SDS011;17105;55.652;37.710;2022-09-09T03:20:21;6.43;;;2.50;;
30289;SDS011;17105;55.652;37.710;2022-09-09T03:20:56;7.25;;;2.60;;
30289;SDS011;17105;55.652;37.710;2022-09-09T03:21:34;9.75;;;2.58;;
30289;SDS011;17105;55.652;37.710;2022-09-09T03:22:08;6.03;;;2.40;;
30289;SDS011;17105;55.652;37.710;2022-09-09T03:22:45;8.80;;;2.80;;
30289;SDS011;17105;55.652;37.710;2022-09-09T03:23:20;9.82;;;2.92;;
30289;SDS011;17105;55.652;37.710;2022-09-09T03:23:54;8.02;;;2.50;;
30289;SDS011;17105;55.652;37.710;2022-09-09T03:24:29;8.02;;;2.40;;
30289;SDS011;17105;55.652;37.710;2022-09-09T03:25:03;32.50;;;4.68;;
30289;SDS011;17105;55.652;37.710;2022-09-09T03:25:45;18.58;;;3.33;;
30289;SDS011;17105;55.652;37.710;2022-09-09T03:26:23;9.05;;;3.10;;
30289;SDS011;17105;55.652;37.710;2022-09-09T03:26:57;7.47;;;2.80;;
30289;SDS011;17105;55.652;37.710;2022-09-09T03:27:32;7.85;;;2.67;;
30289;SDS011;17105;55.652;37.710;2022-09-09T03:28:09;22.95;;;4.28;;
30289;SDS011;17105;55.652;37.710;2022-09-09T03:28:43;56.25;;;6.68;;
30289;SDS011;17105;55.652;37.710;2022-09-09T03:29:22;9.35;;;2.83;;
30289;SDS011;17105;55.652;37.710;2022-09-09T03:30:00;17.05;;;2.70;;
30289;SDS011;17105;55.652;37.710;2022-09-09T03:30:36;13.00;;;3.08;;
30289;SDS011;17105;55.652;37.710;2022-09-09T03:31:10;4.80;;;2.20;;
30289;SDS011;17105;55.652;37.710;2022-09-09T03:31:46;8.07;;;2.50;;
30289;SDS011;17105;55.652;37.710;2022-09-09T03:32:21;7.32;;;2.42;;
30289;SDS011;17105;55.652;37.710;2022-09-09T03:33:00;6.65;;;2.58;;
30289;SDS011;17105;55.652;37.710;2022-09-09T03:33:36;10.07;;;2.90;;
30289;SDS011;17105;55.652;37.710;2022-09-09T03:34:11;9.43;;;2.67;;
30289;SDS011;17105;55.652;37.710;2022-09-09T03:34:47;12.70;;;3.38;;
30289;SDS011;17105;55.652;37.710;2022-09-09T03:35:22;6.60;;;3.00;;
30289;SDS011;17105;55.652;37.710;2022-09-09T03:35:56;8.73;;;2.70;;
30289;SDS011;17105;55.652;37.710;2022-09-09T03:36:33;10.15;;;2.70;;
30289;SDS011;17105;55.652;37.710;2022-09-09T03:37:08;7.75;;;2.53;;
30289;SDS011;17105;55.652;37.710;2022-09-09T03:37:43;12.52;;;2.92;;
30289;SDS011;17105;55.652;37.710;2022-09-09T03:38:17;11.70;;;2.83;;
30289;SDS011;17105;55.652;37.710;2022-09-09T03:38:52;20.98;;;3.25;;
30289;SDS011;17105;55.652;37.710;2022-09-09T03:39:27;17.15;;;3.45;;
30289;SDS011;17105;55.652;37.710;2022-09-09T03:40:03;9.38;;;2.90;;
30289;SDS011;17105;55.652;37.710;2022-09-09T03:40:39;10.00;;;2.70;;
30289;SDS011;17105;55.652;37.710;2022-09-09T03:41:13;13.80;;;3.17;;
30289;SDS011;17105;55.652;37.710;2022-09-09T03:41:47;13.38;;;4.10;;
30289;SDS011;17105;55.652;37.710;2022-09-09T03:42:24;7.28;;;2.72;;
30289;SDS011;17105;55.652;37.710;2022-09-09T03:43:00;8.90;;;2.50;;
30289;SDS011;17105;55.652;37.710;2022-09-09T03:43:36;8.63;;;2.60;;
30289;SDS011;17105;55.652;37.710;2022-09-09T03:44:11;7.70;;;2.35;;
30289;SDS011;17105;55.652;37.710;2022-09-09T03:44:46;5.28;;;2.17;;
30289;SDS011;17105;55.652;37.710;2022-09-09T03:45:25;6.72;;;2.40;;
30289;SDS011;17105;55.652;37.710;2022-09-09T03:46:00;7.20;;;2.50;;
30289;SDS011;17105;55.652;37.710;2022-09-09T03:46:34;6.95;;;2.38;;
30289;SDS011;17105;55.652;37.710;2022-09-09T03:47:10;5.18;;;2.38;;
30289;SDS011;17105;55.652;37.710;2022-09-09T03:47:44;8.55;;;2.47;;
30289;SDS011;17105;55.652;37.710;2022-09-09T03:48:20;4.72;;;2.20;;
30289;SDS011;17105;55.652;37.710;2022-09-09T03:48:54;5.57;;;2.40;;
30289;SDS011;17105;55.652;37.710;2022-09-09T03:49:29;5.32;;;2.25;;
30289;SDS011;17105;55.652;37.710;2022-09-09T03:50:05;7.45;;;2.25;;
30289;SDS011;17105;55.652;37.710;2022-09-09T03:50:46;8.73;;;2.03;;
30289;SDS011;17105;55.652;37.710;2022-09-09T03:51:21;6.60;;;2.55;;
30289;SDS011;17105;55.652;37.710;2022-09-09T03:51:58;5.93;;;2.20;;
30289;SDS011;17105;55.652;37.710;2022-09-09T03:52:34;6.15;;;2.38;;